sensor_id;sensor_type;location;lat;lon;timestamp;temperature;humidity
71039;SHT30;58692;43.212;27.908;2024-01-25T00:01:29;3.84;75.53
71039;SHT30;58692;43.212;27.908;2024-01-25T00:03:55;3.88;75.46
71039;SHT30;58692;43.212;27.908;2024-01-25T00:06:21;3.90;75.36
71039;SHT30;58692;43.212;27.908;2024-01-25T00:08:47;3.90;75.48
71039;SHT30;58692;43.212;27.908;2024-01-25T00:11:12;3.94;75.32
71039;SHT30;58692;43.212;27.908;2024-01-25T00:13:38;3.95;75.21
71039;SHT30;58692;43.212;27.908;2024-01-25T00:16:04;3.93;75.16
71039;SHT30;58692;43.212;27.908;2024-01-25T00:18:30;3.94;75.12
71039;SHT30;58692;43.212;27.908;2024-01-25T00:20:55;3.97;75.05
71039;SHT30;58692;43.212;27.908;2024-01-25T00:23:21;3.98;74.93
71039;SHT30;58692;43.212;27.908;2024-01-25T00:25:47;3.99;74.90
71039;SHT30;58692;43.212;27.908;2024-01-25T00:28:12;3.98;74.82
71039;SHT30;58692;43.212;27.908;2024-01-25T00:30:39;4.01;74.81
71039;SHT30;58692;43.212;27.908;2024-01-25T00:33:04;3.99;74.83
71039;SHT30;58692;43.212;27.908;2024-01-25T00:35:31;3.84;75.24
71039;SHT30;58692;43.212;27.908;2024-01-25T00:37:57;3.97;75.09
71039;SHT30;58692;43.212;27.908;2024-01-25T00:40:23;3.94;75.01
71039;SHT30;58692;43.212;27.908;2024-01-25T00:42:48;3.95;75.05
71039;SHT30;58692;43.212;27.908;2024-01-25T00:45:19;3.85;75.17
71039;SHT30;58692;43.212;27.908;2024-01-25T00:47:46;3.78;75.55
71039;SHT30;58692;43.212;27.908;2024-01-25T00:50:12;3.70;75.81
71039;SHT30;58692;43.212;27.908;2024-01-25T00:52:38;3.74;75.78
71039;SHT30;58692;43.212;27.908;2024-01-25T00:55:04;3.34;77.37
71039;SHT30;58692;43.212;27.908;2024-01-25T00:57:30;3.50;76.93
71039;SHT30;58692;43.212;27.908;2024-01-25T00:59:56;3.47;77.55
71039;SHT30;58692;43.212;27.908;2024-01-25T01:02:22;3.44;77.58
71039;SHT30;58692;43.212;27.908;2024-01-25T01:04:48;3.50;77.83
71039;SHT30;58692;43.212;27.908;2024-01-25T01:07:14;3.44;78.04
71039;SHT30;58692;43.212;27.908;2024-01-25T01:09:43;3.42;78.27
71039;SHT30;58692;43.212;27.908;2024-01-25T01:12:08;3.40;78.47
71039;SHT30;58692;43.212;27.908;2024-01-25T01:14:34;3.43;78.54
71039;SHT30;58692;43.212;27.908;2024-01-25T01:16:59;3.37;78.90
71039;SHT30;58692;43.212;27.908;2024-01-25T01:19:25;3.42;78.84
71039;SHT30;58692;43.212;27.908;2024-01-25T01:21:51;3.46;78.93
71039;SHT30;58692;43.212;27.908;2024-01-25T01:24:16;3.44;79.14
71039;SHT30;58692;43.212;27.908;2024-01-25T01:26:42;3.40;79.18
71039;SHT30;58692;43.212;27.908;2024-01-25T01:29:07;3.42;79.25
71039;SHT30;58692;43.212;27.908;2024-01-25T01:31:33;3.37;79.15
71039;SHT30;58692;43.212;27.908;2024-01-25T01:33:59;3.33;79.36
71039;SHT30;58692;43.212;27.908;2024-01-25T01:36:26;3.29;79.44
71039;SHT30;58692;43.212;27.908;2024-01-25T01:38:51;3.27;79.58
71039;SHT30;58692;43.212;27.908;2024-01-25T01:41:17;3.27;79.64
71039;SHT30;58692;43.212;27.908;2024-01-25T01:43:43;3.23;79.73
71039;SHT30;58692;43.212;27.908;2024-01-25T01:46:12;3.16;79.99
71039;SHT30;58692;43.212;27.908;2024-01-25T01:48:42;3.19;79.80
71039;SHT30;58692;43.212;27.908;2024-01-25T01:51:08;3.12;80.10
71039;SHT30;58692;43.212;27.908;2024-01-25T01:53:34;3.13;80.24
71039;SHT30;58692;43.212;27.908;2024-01-25T01:56:00;3.16;80.23
71039;SHT30;58692;43.212;27.908;2024-01-25T01:58:27;3.16;80.24
71039;SHT30;58692;43.212;27.908;2024-01-25T02:00:54;3.05;80.50
71039;SHT30;58692;43.212;27.908;2024-01-25T02:03:21;3.10;80.33
71039;SHT30;58692;43.212;27.908;2024-01-25T02:05:47;3.08;80.47
71039;SHT30;58692;43.212;27.908;2024-01-25T02:08:12;3.05;80.85
71039;SHT30;58692;43.212;27.908;2024-01-25T02:10:38;3.16;80.50
71039;SHT30;58692;43.212;27.908;2024-01-25T02:13:04;3.09;80.86
71039;SHT30;58692;43.212;27.908;2024-01-25T02:15:30;3.02;81.31
71039;SHT30;58692;43.212;27.908;2024-01-25T02:17:55;2.92;81.60
71039;SHT30;58692;43.212;27.908;2024-01-25T02:20:21;3.05;81.46
71039;SHT30;58692;43.212;27.908;2024-01-25T02:22:49;3.05;81.50
71039;SHT30;58692;43.212;27.908;2024-01-25T02:25:14;2.93;82.02
71039;SHT30;58692;43.212;27.908;2024-01-25T02:27:40;3.00;82.24
71039;SHT30;58692;43.212;27.908;2024-01-25T02:30:06;2.92;83.12
71039;SHT30;58692;43.212;27.908;2024-01-25T02:32:32;2.98;83.23
71039;SHT30;58692;43.212;27.908;2024-01-25T02:34:58;2.92;83.49
71039;SHT30;58692;43.212;27.908;2024-01-25T02:37:24;2.84;83.68
71039;SHT30;58692;43.212;27.908;2024-01-25T02:39:50;2.85;83.44
71039;SHT30;58692;43.212;27.908;2024-01-25T02:42:16;2.89;83.35
71039;SHT30;58692;43.212;27.908;2024-01-25T02:44:43;2.87;83.20
71039;SHT30;58692;43.212;27.908;2024-01-25T02:47:09;2.79;83.42
71039;SHT30;58692;43.212;27.908;2024-01-25T02:49:34;2.85;83.34
71039;SHT30;58692;43.212;27.908;2024-01-25T02:52:00;2.87;83.27
71039;SHT30;58692;43.212;27.908;2024-01-25T02:54:26;2.78;83.38
71039;SHT30;58692;43.212;27.908;2024-01-25T02:56:52;2.66;83.67
71039;SHT30;58692;43.212;27.908;2024-01-25T02:59:18;2.68;83.50
71039;SHT30;58692;43.212;27.908;2024-01-25T03:01:45;2.64;83.18
71039;SHT30;58692;43.212;27.908;2024-01-25T03:04:11;2.68;83.22
71039;SHT30;58692;43.212;27.908;2024-01-25T03:06:37;2.71;83.02
71039;SHT30;58692;43.212;27.908;2024-01-25T03:09:03;2.64;83.08
71039;SHT30;58692;43.212;27.908;2024-01-25T03:11:30;2.55;83.17
71039;SHT30;58692;43.212;27.908;2024-01-25T03:13:56;2.58;83.22
71039;SHT30;58692;43.212;27.908;2024-01-25T03:16:22;2.59;82.84
71039;SHT30;58692;43.212;27.908;2024-01-25T03:18:47;2.61;82.42
71039;SHT30;58692;43.212;27.908;2024-01-25T03:21:13;2.62;82.19
71039;SHT30;58692;43.212;27.908;2024-01-25T03:23:39;2.61;82.06
71039;SHT30;58692;43.212;27.908;2024-01-25T03:26:04;2.65;82.15
71039;SHT30;58692;43.212;27.908;2024-01-25T03:28:30;2.69;81.74
71039;SHT30;58692;43.212;27.908;2024-01-25T03:30:56;2.66;81.60
71039;SHT30;58692;43.212;27.908;2024-01-25T03:33:21;2.72;81.43
71039;SHT30;58692;43.212;27.908;2024-01-25T03:35:47;2.65;81.36
71039;SHT30;58692;43.212;27.908;2024-01-25T03:38:12;2.77;81.01
71039;SHT30;58692;43.212;27.908;2024-01-25T03:40:39;2.78;80.83
71039;SHT30;58692;43.212;27.908;2024-01-25T03:43:05;2.68;80.80
71039;SHT30;58692;43.212;27.908;2024-01-25T03:45:30;2.69;80.79
71039;SHT30;58692;43.212;27.908;2024-01-25T03:47:58;2.65;80.98
71039;SHT30;58692;43.212;27.908;2024-01-25T03:50:23;2.66;80.85
71039;SHT30;58692;43.212;27.908;2024-01-25T03:52:49;2.68;80.81
71039;SHT30;58692;43.212;27.908;2024-01-25T03:55:15;2.75;80.52
71039;SHT30;58692;43.212;27.908;2024-01-25T03:57:40;2.82;80.40
71039;SHT30;58692;43.212;27.908;2024-01-25T04:00:08;2.82;80.38
71039;SHT30;58692;43.212;27.908;2024-01-25T04:02:34;2.88;80.23
71039;SHT30;58692;43.212;27.908;2024-01-25T04:05:00;2.87;79.95
71039;SHT30;58692;43.212;27.908;2024-01-25T04:07:25;2.87;79.90
71039;SHT30;58692;43.212;27.908;2024-01-25T04:09:51;2.91;79.79
71039;SHT30;58692;43.212;27.908;2024-01-25T04:12:16;2.91;79.67
71039;SHT30;58692;43.212;27.908;2024-01-25T04:14:42;2.89;79.63
71039;SHT30;58692;43.212;27.908;2024-01-25T04:17:08;2.87;79.80
71039;SHT30;58692;43.212;27.908;2024-01-25T04:19:33;2.84;79.38
71039;SHT30;58692;43.212;27.908;2024-01-25T04:22:00;2.75;79.43
71039;SHT30;58692;43.212;27.908;2024-01-25T04:24:26;2.72;79.83
71039;SHT30;58692;43.212;27.908;2024-01-25T04:26:51;2.74;80.14
71039;SHT30;58692;43.212;27.908;2024-01-25T04:29:17;2.72;80.35
71039;SHT30;58692;43.212;27.908;2024-01-25T04:31:44;2.68;80.67
71039;SHT30;58692;43.212;27.908;2024-01-25T04:34:12;2.57;81.21
71039;SHT30;58692;43.212;27.908;2024-01-25T04:36:38;2.57;81.48
71039;SHT30;58692;43.212;27.908;2024-01-25T04:39:04;2.49;82.23
71039;SHT30;58692;43.212;27.908;2024-01-25T04:41:29;2.52;82.29
71039;SHT30;58692;43.212;27.908;2024-01-25T04:43:55;2.48;82.49
71039;SHT30;58692;43.212;27.908;2024-01-25T04:46:21;2.37;83.06
71039;SHT30;58692;43.212;27.908;2024-01-25T04:48:47;2.31;83.62
71039;SHT30;58692;43.212;27.908;2024-01-25T04:51:16;2.31;83.49
71039;SHT30;58692;43.212;27.908;2024-01-25T04:53:42;2.31;83.21
71039;SHT30;58692;43.212;27.908;2024-01-25T04:56:08;2.37;83.05
71039;SHT30;58692;43.212;27.908;2024-01-25T04:58:34;2.30;83.11
71039;SHT30;58692;43.212;27.908;2024-01-25T05:01:00;2.31;83.33
71039;SHT30;58692;43.212;27.908;2024-01-25T05:03:25;2.28;83.18
71039;SHT30;58692;43.212;27.908;2024-01-25T05:05:51;2.30;83.09
71039;SHT30;58692;43.212;27.908;2024-01-25T05:08:17;2.41;82.91
71039;SHT30;58692;43.212;27.908;2024-01-25T05:10:42;2.45;82.61
71039;SHT30;58692;43.212;27.908;2024-01-25T05:13:08;2.36;82.62
71039;SHT30;58692;43.212;27.908;2024-01-25T05:15:34;2.42;82.80
71039;SHT30;58692;43.212;27.908;2024-01-25T05:18:04;2.30;82.80
71039;SHT30;58692;43.212;27.908;2024-01-25T05:20:30;2.37;82.75
71039;SHT30;58692;43.212;27.908;2024-01-25T05:23:00;2.36;82.74
71039;SHT30;58692;43.212;27.908;2024-01-25T05:25:26;2.41;82.50
71039;SHT30;58692;43.212;27.908;2024-01-25T05:27:53;2.37;82.78
71039;SHT30;58692;43.212;27.908;2024-01-25T05:30:19;2.37;82.70
71039;SHT30;58692;43.212;27.908;2024-01-25T05:32:45;2.31;82.78
71039;SHT30;58692;43.212;27.908;2024-01-25T05:35:11;2.42;82.53
71039;SHT30;58692;43.212;27.908;2024-01-25T05:37:37;2.40;82.33
71039;SHT30;58692;43.212;27.908;2024-01-25T05:40:03;2.37;82.08
71039;SHT30;58692;43.212;27.908;2024-01-25T05:42:29;2.37;82.03
71039;SHT30;58692;43.212;27.908;2024-01-25T05:44:54;2.42;81.81
71039;SHT30;58692;43.212;27.908;2024-01-25T05:47:20;2.40;81.61
71039;SHT30;58692;43.212;27.908;2024-01-25T05:49:46;2.41;81.71
71039;SHT30;58692;43.212;27.908;2024-01-25T05:52:12;2.42;81.74
71039;SHT30;58692;43.212;27.908;2024-01-25T05:54:38;2.45;81.57
71039;SHT30;58692;43.212;27.908;2024-01-25T05:57:03;2.48;81.52
71039;SHT30;58692;43.212;27.908;2024-01-25T05:59:29;2.48;81.25
71039;SHT30;58692;43.212;27.908;2024-01-25T06:01:55;2.57;81.18
71039;SHT30;58692;43.212;27.908;2024-01-25T06:04:21;2.58;81.16
71039;SHT30;58692;43.212;27.908;2024-01-25T06:06:47;2.58;81.13
71039;SHT30;58692;43.212;27.908;2024-01-25T06:09:13;2.59;81.01
71039;SHT30;58692;43.212;27.908;2024-01-25T06:11:46;2.59;81.16
71039;SHT30;58692;43.212;27.908;2024-01-25T06:14:19;2.68;80.77
71039;SHT30;58692;43.212;27.908;2024-01-25T06:16:44;2.69;80.75
71039;SHT30;58692;43.212;27.908;2024-01-25T06:19:10;2.79;80.56
71039;SHT30;58692;43.212;27.908;2024-01-25T06:21:45;2.91;80.34
71039;SHT30;58692;43.212;27.908;2024-01-25T06:24:11;3.06;80.16
71039;SHT30;58692;43.212;27.908;2024-01-25T06:26:37;3.10;80.38
71039;SHT30;58692;43.212;27.908;2024-01-25T06:29:06;3.27;80.49
71039;SHT30;58692;43.212;27.908;2024-01-25T06:31:31;3.50;80.26
71039;SHT30;58692;43.212;27.908;2024-01-25T06:33:57;4.01;79.24
71039;SHT30;58692;43.212;27.908;2024-01-25T06:36:23;4.63;77.60
71039;SHT30;58692;43.212;27.908;2024-01-25T06:38:48;4.67;76.68
71039;SHT30;58692;43.212;27.908;2024-01-25T06:41:17;4.39;77.69
71039;SHT30;58692;43.212;27.908;2024-01-25T06:43:42;4.31;78.41
71039;SHT30;58692;43.212;27.908;2024-01-25T06:46:08;4.28;78.84
71039;SHT30;58692;43.212;27.908;2024-01-25T06:48:34;4.52;78.52
71039;SHT30;58692;43.212;27.908;2024-01-25T06:51:00;5.73;75.81
71039;SHT30;58692;43.212;27.908;2024-01-25T06:53:27;6.64;72.95
71039;SHT30;58692;43.212;27.908;2024-01-25T06:55:53;7.55;70.56
71039;SHT30;58692;43.212;27.908;2024-01-25T06:58:28;8.05;68.57
71039;SHT30;58692;43.212;27.908;2024-01-25T07:00:55;8.62;67.08
71039;SHT30;58692;43.212;27.908;2024-01-25T07:03:21;8.14;68.07
71039;SHT30;58692;43.212;27.908;2024-01-25T07:05:55;8.14;68.46
71039;SHT30;58692;43.212;27.908;2024-01-25T07:08:24;8.92;66.68
71039;SHT30;58692;43.212;27.908;2024-01-25T07:10:53;9.46;65.70
71039;SHT30;58692;43.212;27.908;2024-01-25T07:13:22;9.74;64.83
71039;SHT30;58692;43.212;27.908;2024-01-25T07:15:48;9.97;64.15
71039;SHT30;58692;43.212;27.908;2024-01-25T07:18:15;10.31;63.32
71039;SHT30;58692;43.212;27.908;2024-01-25T07:20:41;10.46;62.71
71039;SHT30;58692;43.212;27.908;2024-01-25T07:23:06;11.06;61.75
71039;SHT30;58692;43.212;27.908;2024-01-25T07:25:49;11.07;61.00
71039;SHT30;58692;43.212;27.908;2024-01-25T07:28:27;11.35;60.17
71039;SHT30;58692;43.212;27.908;2024-01-25T07:30:58;11.32;60.36
71039;SHT30;58692;43.212;27.908;2024-01-25T07:33:59;11.59;59.85
71039;SHT30;58692;43.212;27.908;2024-01-25T07:36:25;11.96;58.67
71039;SHT30;58692;43.212;27.908;2024-01-25T07:38:55;12.15;58.29
71039;SHT30;58692;43.212;27.908;2024-01-25T07:41:23;12.16;58.13
71039;SHT30;58692;43.212;27.908;2024-01-25T07:43:58;12.15;58.22
71039;SHT30;58692;43.212;27.908;2024-01-25T07:46:24;11.78;58.78
71039;SHT30;58692;43.212;27.908;2024-01-25T07:48:52;11.13;60.36
71039;SHT30;58692;43.212;27.908;2024-01-25T07:51:21;11.10;60.63
71039;SHT30;58692;43.212;27.908;2024-01-25T07:53:56;11.10;60.99
71039;SHT30;58692;43.212;27.908;2024-01-25T07:56:21;11.30;60.62
71039;SHT30;58692;43.212;27.908;2024-01-25T07:58:48;11.26;60.90
71039;SHT30;58692;43.212;27.908;2024-01-25T08:01:20;11.20;61.37
71039;SHT30;58692;43.212;27.908;2024-01-25T08:03:47;11.42;61.12
71039;SHT30;58692;43.212;27.908;2024-01-25T08:06:44;11.10;61.30
71039;SHT30;58692;43.212;27.908;2024-01-25T08:09:10;10.48;63.46
71039;SHT30;58692;43.212;27.908;2024-01-25T08:11:36;9.71;65.65
71039;SHT30;58692;43.212;27.908;2024-01-25T08:14:02;10.16;63.97
71039;SHT30;58692;43.212;27.908;2024-01-25T08:16:31;9.46;65.80
71039;SHT30;58692;43.212;27.908;2024-01-25T08:18:57;9.07;66.96
71039;SHT30;58692;43.212;27.908;2024-01-25T08:21:24;9.46;66.99
71039;SHT30;58692;43.212;27.908;2024-01-25T08:23:51;9.16;67.79
71039;SHT30;58692;43.212;27.908;2024-01-25T08:26:17;9.10;67.99
71039;SHT30;58692;43.212;27.908;2024-01-25T08:28:45;8.93;68.38
71039;SHT30;58692;43.212;27.908;2024-01-25T08:31:11;8.90;68.86
71039;SHT30;58692;43.212;27.908;2024-01-25T08:33:37;8.85;69.36
71039;SHT30;58692;43.212;27.908;2024-01-25T08:36:20;8.96;69.21
71039;SHT30;58692;43.212;27.908;2024-01-25T08:38:50;8.90;69.58
71039;SHT30;58692;43.212;27.908;2024-01-25T08:41:16;8.96;69.62
71039;SHT30;58692;43.212;27.908;2024-01-25T08:43:42;8.95;69.72
71039;SHT30;58692;43.212;27.908;2024-01-25T08:46:08;8.88;70.07
71039;SHT30;58692;43.212;27.908;2024-01-25T08:48:34;9.09;69.50
71039;SHT30;58692;43.212;27.908;2024-01-25T08:50:59;9.90;66.79
71039;SHT30;58692;43.212;27.908;2024-01-25T08:53:25;9.77;66.84
71039;SHT30;58692;43.212;27.908;2024-01-25T08:55:54;10.13;65.66
71039;SHT30;58692;43.212;27.908;2024-01-25T08:58:21;10.39;64.85
71039;SHT30;58692;43.212;27.908;2024-01-25T09:00:46;10.65;63.96
71039;SHT30;58692;43.212;27.908;2024-01-25T09:03:15;10.69;63.32
71039;SHT30;58692;43.212;27.908;2024-01-25T09:05:43;10.60;63.90
71039;SHT30;58692;43.212;27.908;2024-01-25T09:08:19;10.28;64.27
71039;SHT30;58692;43.212;27.908;2024-01-25T09:10:48;10.09;64.90
71039;SHT30;58692;43.212;27.908;2024-01-25T09:13:16;10.57;64.08
71039;SHT30;58692;43.212;27.908;2024-01-25T09:15:42;10.49;64.78
71039;SHT30;58692;43.212;27.908;2024-01-25T09:18:12;10.28;64.88
71039;SHT30;58692;43.212;27.908;2024-01-25T09:20:38;10.23;65.55
71039;SHT30;58692;43.212;27.908;2024-01-25T09:23:04;10.53;65.42
71039;SHT30;58692;43.212;27.908;2024-01-25T09:25:30;10.76;64.60
71039;SHT30;58692;43.212;27.908;2024-01-25T09:27:55;11.01;63.33
71039;SHT30;58692;43.212;27.908;2024-01-25T09:30:22;11.06;63.25
71039;SHT30;58692;43.212;27.908;2024-01-25T09:32:48;11.11;63.34
71039;SHT30;58692;43.212;27.908;2024-01-25T09:35:14;11.30;63.33
71039;SHT30;58692;43.212;27.908;2024-01-25T09:37:42;11.31;63.08
71039;SHT30;58692;43.212;27.908;2024-01-25T09:40:09;11.54;62.26
71039;SHT30;58692;43.212;27.908;2024-01-25T09:42:36;11.28;63.25
71039;SHT30;58692;43.212;27.908;2024-01-25T09:45:06;11.18;63.87
71039;SHT30;58692;43.212;27.908;2024-01-25T09:47:33;10.73;64.62
71039;SHT30;58692;43.212;27.908;2024-01-25T09:49:59;10.67;64.95
71039;SHT30;58692;43.212;27.908;2024-01-25T09:52:27;10.60;65.07
71039;SHT30;58692;43.212;27.908;2024-01-25T09:54:54;10.52;65.34
71039;SHT30;58692;43.212;27.908;2024-01-25T09:57:24;10.65;65.21
71039;SHT30;58692;43.212;27.908;2024-01-25T09:59:50;10.55;65.49
71039;SHT30;58692;43.212;27.908;2024-01-25T10:02:16;10.65;65.41
71039;SHT30;58692;43.212;27.908;2024-01-25T10:04:53;10.62;65.32
71039;SHT30;58692;43.212;27.908;2024-01-25T10:07:36;11.74;62.92
71039;SHT30;58692;43.212;27.908;2024-01-25T10:10:02;12.59;60.68
71039;SHT30;58692;43.212;27.908;2024-01-25T10:12:34;13.52;58.72
71039;SHT30;58692;43.212;27.908;2024-01-25T10:15:04;14.36;56.68
71039;SHT30;58692;43.212;27.908;2024-01-25T10:17:31;15.26;54.65
71039;SHT30;58692;43.212;27.908;2024-01-25T10:19:57;15.32;54.55
71039;SHT30;58692;43.212;27.908;2024-01-25T10:22:23;15.66;53.45
71039;SHT30;58692;43.212;27.908;2024-01-25T10:24:52;15.66;53.08
71039;SHT30;58692;43.212;27.908;2024-01-25T10:27:20;15.83;53.06
71039;SHT30;58692;43.212;27.908;2024-01-25T10:29:47;15.82;52.27
71039;SHT30;58692;43.212;27.908;2024-01-25T10:32:14;15.76;53.56
71039;SHT30;58692;43.212;27.908;2024-01-25T10:34:41;15.93;52.60
71039;SHT30;58692;43.212;27.908;2024-01-25T10:37:07;15.22;53.67
71039;SHT30;58692;43.212;27.908;2024-01-25T10:39:34;14.56;55.32
71039;SHT30;58692;43.212;27.908;2024-01-25T10:42:00;13.55;57.82
71039;SHT30;58692;43.212;27.908;2024-01-25T10:44:26;13.22;58.71
71039;SHT30;58692;43.212;27.908;2024-01-25T10:46:55;12.59;59.97
71039;SHT30;58692;43.212;27.908;2024-01-25T10:49:25;12.36;61.39
71039;SHT30;58692;43.212;27.908;2024-01-25T10:51:52;11.90;62.27
71039;SHT30;58692;43.212;27.908;2024-01-25T10:54:18;11.83;62.42
71039;SHT30;58692;43.212;27.908;2024-01-25T10:56:46;11.68;63.12
71039;SHT30;58692;43.212;27.908;2024-01-25T10:59:16;11.37;64.03
71039;SHT30;58692;43.212;27.908;2024-01-25T11:01:45;11.27;64.02
71039;SHT30;58692;43.212;27.908;2024-01-25T11:04:20;10.96;65.07
71039;SHT30;58692;43.212;27.908;2024-01-25T11:06:46;10.87;65.25
71039;SHT30;58692;43.212;27.908;2024-01-25T11:09:20;10.72;65.68
71039;SHT30;58692;43.212;27.908;2024-01-25T11:11:47;10.62;65.83
71039;SHT30;58692;43.212;27.908;2024-01-25T11:14:14;10.42;66.23
71039;SHT30;58692;43.212;27.908;2024-01-25T11:16:45;10.45;66.21
71039;SHT30;58692;43.212;27.908;2024-01-25T11:19:21;10.28;66.40
71039;SHT30;58692;43.212;27.908;2024-01-25T11:21:48;10.22;66.28
71039;SHT30;58692;43.212;27.908;2024-01-25T11:24:17;10.13;66.54
71039;SHT30;58692;43.212;27.908;2024-01-25T11:26:45;10.12;66.92
71039;SHT30;58692;43.212;27.908;2024-01-25T11:29:16;10.22;66.86
71039;SHT30;58692;43.212;27.908;2024-01-25T11:31:44;10.18;66.99
71039;SHT30;58692;43.212;27.908;2024-01-25T11:34:11;10.21;66.90
71039;SHT30;58692;43.212;27.908;2024-01-25T11:36:38;10.22;67.00
71039;SHT30;58692;43.212;27.908;2024-01-25T11:39:04;10.26;66.89
71039;SHT30;58692;43.212;27.908;2024-01-25T11:41:34;10.25;66.85
71039;SHT30;58692;43.212;27.908;2024-01-25T11:44:05;10.21;66.85
71039;SHT30;58692;43.212;27.908;2024-01-25T11:46:31;10.05;66.84
71039;SHT30;58692;43.212;27.908;2024-01-25T11:48:58;10.08;66.63
71039;SHT30;58692;43.212;27.908;2024-01-25T11:51:24;10.08;66.55
71039;SHT30;58692;43.212;27.908;2024-01-25T11:53:50;10.06;66.19
71039;SHT30;58692;43.212;27.908;2024-01-25T11:56:28;10.05;66.18
71039;SHT30;58692;43.212;27.908;2024-01-25T11:58:54;10.11;65.84
71039;SHT30;58692;43.212;27.908;2024-01-25T12:01:24;10.15;65.80
71039;SHT30;58692;43.212;27.908;2024-01-25T12:03:53;10.28;65.68
71039;SHT30;58692;43.212;27.908;2024-01-25T12:06:19;10.25;65.96
71039;SHT30;58692;43.212;27.908;2024-01-25T12:09:22;10.29;66.00
71039;SHT30;58692;43.212;27.908;2024-01-25T12:11:49;10.28;66.13
71039;SHT30;58692;43.212;27.908;2024-01-25T12:14:16;10.25;66.09
71039;SHT30;58692;43.212;27.908;2024-01-25T12:16:42;10.16;66.45
71039;SHT30;58692;43.212;27.908;2024-01-25T12:19:11;10.08;66.61
71039;SHT30;58692;43.212;27.908;2024-01-25T12:21:36;10.09;66.83
71039;SHT30;58692;43.212;27.908;2024-01-25T12:24:02;10.01;67.34
71039;SHT30;58692;43.212;27.908;2024-01-25T12:26:34;10.06;67.13
71039;SHT30;58692;43.212;27.908;2024-01-25T12:29:00;10.01;68.28
71039;SHT30;58692;43.212;27.908;2024-01-25T12:31:26;10.13;69.42
71039;SHT30;58692;43.212;27.908;2024-01-25T12:33:51;10.16;69.25
71039;SHT30;58692;43.212;27.908;2024-01-25T12:36:17;10.21;69.25
71039;SHT30;58692;43.212;27.908;2024-01-25T12:38:44;10.28;69.22
71039;SHT30;58692;43.212;27.908;2024-01-25T12:41:10;10.26;68.38
71039;SHT30;58692;43.212;27.908;2024-01-25T12:43:36;10.31;67.63
71039;SHT30;58692;43.212;27.908;2024-01-25T12:46:02;10.38;67.53
71039;SHT30;58692;43.212;27.908;2024-01-25T12:48:28;10.42;67.25
71039;SHT30;58692;43.212;27.908;2024-01-25T12:50:53;10.45;67.07
71039;SHT30;58692;43.212;27.908;2024-01-25T12:53:19;10.50;66.90
71039;SHT30;58692;43.212;27.908;2024-01-25T12:55:45;10.56;67.05
71039;SHT30;58692;43.212;27.908;2024-01-25T12:58:11;10.60;66.79
71039;SHT30;58692;43.212;27.908;2024-01-25T13:00:39;10.66;66.65
71039;SHT30;58692;43.212;27.908;2024-01-25T13:03:05;10.62;66.92
71039;SHT30;58692;43.212;27.908;2024-01-25T13:05:33;10.56;67.28
71039;SHT30;58692;43.212;27.908;2024-01-25T13:08:01;10.28;67.68
71039;SHT30;58692;43.212;27.908;2024-01-25T13:10:27;10.29;67.88
71039;SHT30;58692;43.212;27.908;2024-01-25T13:12:53;10.26;68.10
71039;SHT30;58692;43.212;27.908;2024-01-25T13:15:18;10.19;68.18
71039;SHT30;58692;43.212;27.908;2024-01-25T13:17:45;10.18;68.30
71039;SHT30;58692;43.212;27.908;2024-01-25T13:20:11;10.15;68.34
71039;SHT30;58692;43.212;27.908;2024-01-25T13:22:37;10.11;68.64
71039;SHT30;58692;43.212;27.908;2024-01-25T13:25:03;10.09;68.54
71039;SHT30;58692;43.212;27.908;2024-01-25T13:27:29;10.09;68.48
71039;SHT30;58692;43.212;27.908;2024-01-25T13:29:55;10.15;68.49
71039;SHT30;58692;43.212;27.908;2024-01-25T13:32:22;10.19;68.37
71039;SHT30;58692;43.212;27.908;2024-01-25T13:34:48;10.15;68.41
71039;SHT30;58692;43.212;27.908;2024-01-25T13:37:14;10.25;68.37
71039;SHT30;58692;43.212;27.908;2024-01-25T13:39:39;10.35;68.10
71039;SHT30;58692;43.212;27.908;2024-01-25T13:42:05;10.43;68.02
71039;SHT30;58692;43.212;27.908;2024-01-25T13:44:31;10.49;67.69
71039;SHT30;58692;43.212;27.908;2024-01-25T13:46:56;10.46;67.27
71039;SHT30;58692;43.212;27.908;2024-01-25T13:49:25;10.50;67.22
71039;SHT30;58692;43.212;27.908;2024-01-25T13:51:50;10.53;67.12
71039;SHT30;58692;43.212;27.908;2024-01-25T13:54:17;10.50;67.55
71039;SHT30;58692;43.212;27.908;2024-01-25T13:56:42;10.45;67.48
71039;SHT30;58692;43.212;27.908;2024-01-25T13:59:08;10.48;67.56
71039;SHT30;58692;43.212;27.908;2024-01-25T14:01:34;10.43;67.68
71039;SHT30;58692;43.212;27.908;2024-01-25T14:03:59;10.39;67.39
71039;SHT30;58692;43.212;27.908;2024-01-25T14:06:25;10.29;67.66
71039;SHT30;58692;43.212;27.908;2024-01-25T14:08:51;10.23;68.82
71039;SHT30;58692;43.212;27.908;2024-01-25T14:11:17;10.22;68.54
71039;SHT30;58692;43.212;27.908;2024-01-25T14:13:42;10.16;67.90
71039;SHT30;58692;43.212;27.908;2024-01-25T14:16:08;10.09;68.51
71039;SHT30;58692;43.212;27.908;2024-01-25T14:18:37;10.06;69.02
71039;SHT30;58692;43.212;27.908;2024-01-25T14:21:06;10.08;69.26
71039;SHT30;58692;43.212;27.908;2024-01-25T14:23:35;9.98;69.66
71039;SHT30;58692;43.212;27.908;2024-01-25T14:26:04;9.95;69.59
71039;SHT30;58692;43.212;27.908;2024-01-25T14:28:30;9.80;69.73
71039;SHT30;58692;43.212;27.908;2024-01-25T14:30:57;9.78;69.97
71039;SHT30;58692;43.212;27.908;2024-01-25T14:33:22;9.77;70.02
71039;SHT30;58692;43.212;27.908;2024-01-25T14:35:48;9.81;70.11
71039;SHT30;58692;43.212;27.908;2024-01-25T14:38:14;9.70;70.30
71039;SHT30;58692;43.212;27.908;2024-01-25T14:40:40;9.68;70.06
71039;SHT30;58692;43.212;27.908;2024-01-25T14:43:06;9.64;70.00
71039;SHT30;58692;43.212;27.908;2024-01-25T14:45:32;9.61;70.41
71039;SHT30;58692;43.212;27.908;2024-01-25T14:47:59;9.55;70.21
71039;SHT30;58692;43.212;27.908;2024-01-25T14:50:25;9.50;70.24
71039;SHT30;58692;43.212;27.908;2024-01-25T14:52:51;9.46;70.39
71039;SHT30;58692;43.212;27.908;2024-01-25T14:55:16;9.47;70.26
71039;SHT30;58692;43.212;27.908;2024-01-25T14:57:54;9.44;70.17
71039;SHT30;58692;43.212;27.908;2024-01-25T15:00:20;9.47;70.08
71039;SHT30;58692;43.212;27.908;2024-01-25T15:02:46;9.41;70.32
71039;SHT30;58692;43.212;27.908;2024-01-25T15:05:12;9.50;70.06
71039;SHT30;58692;43.212;27.908;2024-01-25T15:07:41;9.43;70.07
71039;SHT30;58692;43.212;27.908;2024-01-25T15:10:11;9.41;70.06
71039;SHT30;58692;43.212;27.908;2024-01-25T15:13:00;9.39;70.30
71039;SHT30;58692;43.212;27.908;2024-01-25T15:15:26;9.31;70.37
71039;SHT30;58692;43.212;27.908;2024-01-25T15:17:54;9.29;70.33
71039;SHT30;58692;43.212;27.908;2024-01-25T15:20:21;9.31;70.45
71039;SHT30;58692;43.212;27.908;2024-01-25T15:22:47;9.27;70.61
71039;SHT30;58692;43.212;27.908;2024-01-25T15:25:15;9.23;70.53